createdAt,value
2018-10-01T00:00:09.948Z,5.33
2018-10-01T00:02:41.385Z,8.47
2018-10-01T00:05:10.092Z,8.60
2018-10-01T00:10:27.100Z,4.83
2018-10-01T00:13:14.452Z,5.63
2018-10-01T00:16:01.471Z,6.93
2018-10-01T00:18:33.094Z,8.77
2018-10-01T00:24:26.844Z,3.90
2018-10-01T00:27:14.122Z,6.75
2018-10-01T00:30:01.511Z,4.73
2018-10-01T00:32:48.761Z,3.47
2018-10-01T00:35:26.159Z,5.97
2018-10-01T00:38:13.218Z,5.67
2018-10-01T00:40:44.806Z,3.87
2018-10-01T00:43:32.242Z,4.00
2018-10-01T00:46:00.915Z,8.00
2018-10-01T00:48:48.112Z,6.40
2018-10-01T00:51:36.153Z,9.33
2018-10-01T00:57:30.698Z,7.27
2018-10-01T01:00:17.811Z,5.70
2018-10-01T01:03:05.194Z,5.50
2018-10-01T01:05:49.077Z,6.47
2018-10-01T01:08:36.469Z,4.67
2018-10-01T01:11:34.892Z,7.70
2018-10-01T01:14:03.549Z,6.03
2018-10-01T01:16:50.518Z,6.70
2018-10-01T01:19:37.597Z,4.40
2018-10-01T01:22:28.144Z,4.50
2018-10-01T01:25:12.228Z,6.17
2018-10-01T01:28:00.198Z,5.67
2018-10-01T01:30:47.498Z,9.33
2018-10-01T01:33:34.758Z,5.63
2018-10-01T01:36:15.154Z,7.63
2018-10-01T01:39:02.468Z,6.87
2018-10-01T01:45:12.017Z,5.40
2018-10-01T01:47:59.372Z,6.93
2018-10-01T01:50:46.755Z,7.37
2018-10-01T01:53:34.187Z,5.43
2018-10-01T01:56:21.686Z,6.10
2018-10-01T01:59:05.363Z,5.10
2018-10-01T02:01:42.632Z,3.83
2018-10-01T02:04:12.359Z,4.77
2018-10-01T02:06:41.077Z,3.67
2018-10-01T02:09:29.327Z,4.57
2018-10-01T02:12:17.179Z,5.40
2018-10-01T02:15:04.646Z,5.40
2018-10-01T02:18:07.395Z,5.37
2018-10-01T02:20:55.612Z,5.67
2018-10-01T02:23:42.998Z,7.93
2018-10-01T02:26:30.188Z,5.33
2018-10-01T02:28:59.076Z,8.40
2018-10-01T02:34:33.937Z,6.53
2018-10-01T02:40:39.627Z,7.90
2018-10-01T02:43:29.615Z,5.10
2018-10-01T02:46:25.092Z,6.53
2018-10-01T02:48:53.716Z,6.70
2018-10-01T02:51:40.876Z,6.60
2018-10-01T02:54:30.448Z,6.13
2018-10-01T02:57:17.770Z,7.00
2018-10-01T03:00:06.050Z,5.63
2018-10-01T03:02:53.053Z,7.63
2018-10-01T03:05:29.173Z,8.43
2018-10-01T03:11:23.008Z,6.67
2018-10-01T03:13:51.598Z,7.03
2018-10-01T03:16:38.755Z,8.07
2018-10-01T03:19:10.213Z,7.63
2018-10-01T03:21:57.461Z,5.03
2018-10-01T03:24:46.936Z,4.87
2018-10-01T03:27:34.346Z,6.00
2018-10-01T03:30:21.708Z,5.93
2018-10-01T03:32:50.341Z,8.80
2018-10-01T03:35:37.754Z,6.13
2018-10-01T03:38:25.226Z,5.47
2018-10-01T03:41:12.812Z,11.87
2018-10-01T03:43:42.278Z,7.47
2018-10-01T03:46:32.720Z,11.43
2018-10-01T03:49:20.074Z,9.87
2018-10-01T04:01:07.828Z,12.10
2018-10-01T04:15:50.951Z,9.87
2018-10-01T04:18:34.886Z,7.33
2018-10-01T04:24:28.136Z,7.60
2018-10-01T04:27:15.561Z,7.87
2018-10-01T04:45:19.569Z,7.57
2018-10-01T04:48:07.031Z,9.70
2018-10-01T04:51:01.888Z,13.33
2018-10-01T04:56:37.700Z,11.70
2018-10-01T04:59:24.861Z,12.80
2018-10-01T05:02:12.348Z,14.07
2018-10-01T05:04:59.775Z,19.40
2018-10-01T05:07:28.462Z,8.33
2018-10-01T05:10:17.322Z,12.30
2018-10-01T05:12:56.823Z,9.17
2018-10-01T05:15:44.872Z,11.00
2018-10-01T05:18:33.696Z,15.43
2018-10-01T05:21:22.396Z,12.57
2018-10-01T05:24:12.020Z,15.83
2018-10-01T05:30:06.666Z,13.90
2018-10-01T05:32:55.841Z,12.93
2018-10-01T05:38:50.279Z,12.40
2018-10-01T05:41:37.498Z,11.00
2018-10-01T05:47:32.191Z,8.80
2018-10-01T05:50:19.750Z,9.37
2018-10-01T05:53:07.159Z,10.27
2018-10-01T05:59:00.660Z,9.47
2018-10-01T06:01:48.097Z,9.32
2018-10-01T06:04:35.757Z,10.87
2018-10-01T06:07:22.896Z,8.20
2018-10-01T06:10:10.192Z,9.57
2018-10-01T06:12:57.493Z,6.97
2018-10-01T06:15:52.967Z,8.63
2018-10-01T06:18:39.942Z,7.17
2018-10-01T06:21:27.010Z,10.60
2018-10-01T06:24:14.398Z,10.90
2018-10-01T06:27:01.612Z,14.17
2018-10-01T06:29:48.971Z,11.17
2018-10-01T06:32:36.330Z,11.57
2018-10-01T06:35:23.879Z,13.60
2018-10-01T06:38:11.464Z,14.77
2018-10-01T06:47:11.922Z,15.25
2018-10-01T06:49:59.919Z,18.03
2018-10-01T06:55:54.859Z,16.83
2018-10-01T06:58:42.287Z,13.68
2018-10-01T07:01:29.669Z,14.17
2018-10-01T07:07:24.999Z,11.57
2018-10-01T07:10:10.542Z,15.30
2018-10-01T07:12:58.129Z,15.97
2018-10-01T07:15:45.369Z,18.40
2018-10-01T07:21:40.142Z,12.83
2018-10-01T07:24:35.714Z,16.60
2018-10-01T07:27:23.040Z,14.87
2018-10-01T07:36:24.100Z,11.10
2018-10-01T07:39:11.712Z,22.27
2018-10-01T07:41:58.891Z,16.07
2018-10-01T07:44:46.276Z,10.33
2018-10-01T07:47:33.654Z,15.93
2018-10-01T07:50:20.744Z,12.63
2018-10-01T07:53:08.696Z,12.57
2018-10-01T07:55:56.315Z,10.77
2018-10-01T07:58:44.034Z,11.73
2018-10-01T08:04:41.393Z,10.00
2018-10-01T08:07:29.402Z,17.13
2018-10-01T08:10:16.789Z,12.18
2018-10-01T08:13:05.270Z,12.07
2018-10-01T08:15:52.161Z,17.95
2018-10-01T08:18:39.576Z,14.80
2018-10-01T08:24:33.136Z,13.00
2018-10-01T08:27:20.663Z,17.25
2018-10-01T08:30:07.983Z,18.60
2018-10-01T08:32:55.349Z,18.70
2018-10-01T08:35:42.781Z,18.92
2018-10-01T08:41:40.520Z,16.73
2018-10-01T08:44:27.876Z,16.48
2018-10-01T08:50:21.807Z,16.98
2018-10-01T08:53:09.064Z,22.40
2018-10-01T08:55:56.631Z,20.45
2018-10-01T08:58:44.154Z,21.30
2018-10-01T09:01:31.472Z,20.27
2018-10-01T09:04:18.587Z,19.70
2018-10-01T09:07:06.110Z,20.52
2018-10-01T09:09:53.430Z,22.73
2018-10-01T09:12:40.959Z,24.60
2018-10-01T09:15:28.380Z,23.25
2018-10-01T09:18:15.760Z,25.77
2018-10-01T09:21:03.139Z,25.42
2018-10-01T09:23:50.576Z,29.77
2018-10-01T09:26:38.044Z,25.75
2018-10-01T09:29:25.506Z,29.35
2018-10-01T09:32:13.063Z,24.20
2018-10-01T09:35:00.544Z,21.65
2018-10-01T09:37:49.013Z,19.48
2018-10-01T09:40:36.902Z,24.87
2018-10-01T09:43:25.850Z,25.50
2018-10-01T09:46:13.456Z,26.42
2018-10-01T09:49:00.872Z,25.15
2018-10-01T09:51:48.335Z,22.50
2018-10-01T09:54:35.983Z,26.17
2018-10-01T09:57:23.487Z,26.70
2018-10-01T10:00:11.587Z,20.62
2018-10-01T10:02:58.942Z,17.02
2018-10-01T10:05:46.734Z,20.95
2018-10-01T10:08:34.101Z,21.65
2018-10-01T10:11:21.733Z,12.98
2018-10-01T10:14:09.940Z,13.07
2018-10-01T10:17:00.443Z,16.37
2018-10-01T10:22:53.350Z,6.82
2018-10-01T10:25:40.524Z,7.55
2018-10-01T10:28:27.962Z,6.00
2018-10-01T10:31:17.206Z,6.37
2018-10-01T10:34:04.830Z,4.32
2018-10-01T10:36:52.302Z,4.68
2018-10-01T10:39:47.392Z,6.72
2018-10-01T10:42:35.730Z,4.22
2018-10-01T10:45:22.951Z,4.78
2018-10-01T10:48:11.822Z,5.47
2018-10-01T10:50:59.581Z,7.68
2018-10-01T10:53:47.106Z,5.68
2018-10-01T10:59:30.084Z,7.20
2018-10-01T11:02:18.087Z,6.57
2018-10-01T11:04:46.736Z,10.40
2018-10-01T11:07:34.464Z,5.57
2018-10-01T11:10:21.846Z,6.90
2018-10-01T11:13:09.030Z,7.72
2018-10-01T11:15:37.637Z,7.75
2018-10-01T11:18:24.890Z,10.13
2018-10-01T11:21:13.065Z,8.38
2018-10-01T11:24:01.235Z,8.25
2018-10-01T11:26:48.704Z,7.53
2018-10-01T11:29:36.505Z,7.07
2018-10-01T11:32:08.086Z,10.65
2018-10-01T11:34:49.416Z,9.63
2018-10-01T11:37:36.510Z,10.63
2018-10-01T11:40:11.001Z,9.57
2018-10-01T11:42:59.703Z,9.15
2018-10-01T11:45:37.200Z,7.25
2018-10-01T11:48:24.429Z,7.03
2018-10-01T11:51:14.584Z,7.93
2018-10-01T11:54:01.898Z,11.38
2018-10-01T11:56:51.451Z,11.20
2018-10-01T11:59:43.807Z,6.97
2018-10-01T12:02:35.272Z,6.30
2018-10-01T12:05:07.684Z,10.10
2018-10-01T12:07:55.451Z,8.35
2018-10-01T12:10:26.139Z,8.57
2018-10-01T12:13:13.958Z,9.52
2018-10-01T12:15:43.458Z,11.77
2018-10-01T12:24:44.271Z,9.65
2018-10-01T12:27:13.803Z,8.38
2018-10-01T12:30:01.202Z,6.82
2018-10-01T12:35:56.212Z,3.50
2018-10-01T12:38:43.309Z,5.30
2018-10-01T12:41:32.203Z,4.33
2018-10-01T12:44:19.562Z,4.60
2018-10-01T12:46:58.637Z,5.25
2018-10-01T12:49:51.052Z,4.62
2018-10-01T12:52:20.668Z,5.40
2018-10-01T12:55:09.551Z,8.23
2018-10-01T12:57:56.778Z,4.82
2018-10-01T13:00:44.222Z,8.30
2018-10-01T13:03:32.147Z,7.65
2018-10-01T13:06:20.699Z,11.32
2018-10-01T13:09:08.102Z,11.45
2018-10-01T13:11:56.367Z,17.73
2018-10-01T13:14:43.976Z,18.65
2018-10-01T13:17:32.175Z,16.90
2018-10-01T13:20:19.621Z,6.90
2018-10-01T13:23:09.651Z,10.40
2018-10-01T13:25:41.212Z,12.93
2018-10-01T13:28:29.535Z,10.65
2018-10-01T13:31:08.975Z,12.18
2018-10-01T13:33:56.499Z,8.13
2018-10-01T13:39:45.786Z,8.45
2018-10-01T13:42:15.563Z,4.18
2018-10-01T13:45:10.903Z,10.30
2018-10-01T13:54:06.254Z,13.25
2018-10-01T13:56:51.443Z,11.97
2018-10-01T13:59:38.760Z,10.50
2018-10-01T14:02:26.250Z,6.93
2018-10-01T14:05:14.244Z,3.62
2018-10-01T14:08:01.958Z,2.85
2018-10-01T14:10:49.550Z,7.15
2018-10-01T14:13:36.988Z,6.72
2018-10-01T14:16:08.417Z,7.07
2018-10-01T14:18:56.117Z,16.77
2018-10-01T14:21:26.075Z,7.93
2018-10-01T14:24:14.619Z,12.60
2018-10-01T14:27:03.070Z,8.63
2018-10-01T14:29:50.328Z,4.07
2018-10-01T14:38:41.099Z,3.55
2018-10-01T14:41:25.658Z,6.43
2018-10-01T14:44:13.648Z,10.98
2018-10-01T14:46:44.594Z,4.30
2018-10-01T14:49:24.614Z,8.07
2018-10-01T14:52:12.305Z,4.20
2018-10-01T14:55:01.224Z,4.07
2018-10-01T14:57:49.064Z,6.22
2018-10-01T15:00:36.725Z,4.60
2018-10-01T15:03:23.927Z,4.62
2018-10-01T15:06:11.082Z,3.42
2018-10-01T15:08:59.235Z,2.97
2018-10-01T15:11:34.779Z,3.50
2018-10-01T15:14:22.202Z,1.87
2018-10-01T15:19:58.876Z,2.87
2018-10-01T15:22:46.424Z,7.30
2018-10-01T15:25:34.181Z,6.20
2018-10-01T15:28:27.248Z,2.58
2018-10-01T15:31:16.022Z,6.35
2018-10-01T15:36:54.719Z,2.37
2018-10-01T15:39:42.948Z,4.43
2018-10-01T15:42:12.152Z,6.53
2018-10-01T15:44:59.752Z,10.65
2018-10-01T15:50:56.808Z,5.18
2018-10-01T15:53:44.413Z,6.70
2018-10-01T15:56:31.805Z,9.15
2018-10-01T15:59:19.253Z,6.28
2018-10-01T16:02:07.386Z,4.40
2018-10-01T16:04:57.807Z,5.87
2018-10-01T16:07:45.839Z,4.78
2018-10-01T16:10:38.171Z,4.00
2018-10-01T16:13:26.259Z,1.75
2018-10-01T16:16:13.467Z,2.40
2018-10-01T16:19:01.052Z,1.08
2018-10-01T16:21:48.788Z,2.45
2018-10-01T16:24:36.809Z,1.75
2018-10-01T16:27:35.639Z,2.65
2018-10-01T16:36:39.406Z,3.07
2018-10-01T16:42:33.206Z,3.35
2018-10-01T16:48:27.107Z,1.50
2018-10-01T16:51:15.256Z,1.80
2018-10-01T16:54:02.782Z,6.63
2018-10-01T16:56:51.285Z,10.50
2018-10-01T16:59:38.855Z,15.00
2018-10-01T17:02:26.258Z,20.43
2018-10-01T17:14:33.754Z,18.70
2018-10-01T17:17:20.988Z,6.47
2018-10-01T17:20:08.432Z,9.10
2018-10-01T17:26:06.100Z,5.13
2018-10-01T17:28:53.413Z,5.17
2018-10-01T17:31:42.332Z,4.57
2018-10-01T17:34:30.891Z,5.40
2018-10-01T17:37:18.545Z,3.53
2018-10-01T17:40:06.942Z,6.87
2018-10-01T17:42:54.819Z,2.45
2018-10-01T17:45:42.565Z,2.10
2018-10-01T17:54:43.435Z,6.90
2018-10-01T17:57:31.206Z,9.30
2018-10-01T18:00:18.986Z,7.57
2018-10-01T18:12:24.522Z,5.03
2018-10-01T18:15:11.948Z,12.33
2018-10-01T18:17:59.533Z,10.17
2018-10-01T18:20:47.427Z,9.60
2018-10-01T18:23:35.484Z,7.80
2018-10-01T18:26:23.131Z,4.90
2018-10-01T18:29:11.213Z,8.77
2018-10-01T18:32:00.356Z,7.37
2018-10-01T18:34:48.236Z,3.97
2018-10-01T18:37:36.686Z,6.50
2018-10-01T18:40:25.511Z,5.57
2018-10-01T18:43:13.625Z,7.23
2018-10-01T18:46:01.014Z,3.87
2018-10-01T18:48:49.039Z,5.07
2018-10-01T18:54:42.666Z,8.10
2018-10-01T18:57:29.811Z,7.93
2018-10-01T19:00:16.870Z,9.73
2018-10-01T19:03:03.774Z,9.73
2018-10-01T19:05:51.326Z,6.90
2018-10-01T19:08:38.658Z,12.30
2018-10-01T19:11:26.144Z,7.57
2018-10-01T19:14:13.733Z,11.60
2018-10-01T19:17:01.645Z,6.30
2018-10-01T19:19:49.626Z,6.30
2018-10-01T19:22:37.142Z,5.33
2018-10-01T19:25:25.104Z,6.13
2018-10-01T19:28:12.792Z,5.27
2018-10-01T19:31:00.323Z,7.43
2018-10-01T19:33:48.436Z,10.67
2018-10-01T19:42:50.280Z,5.80
2018-10-01T19:45:38.183Z,8.23
2018-10-01T19:48:25.670Z,8.57
2018-10-01T19:51:13.286Z,5.87
2018-10-01T19:54:13.483Z,7.37
2018-10-01T19:57:03.416Z,3.07
2018-10-01T19:59:51.083Z,5.33
2018-10-01T20:02:39.904Z,6.00
2018-10-01T20:05:27.319Z,4.62
2018-10-01T20:11:22.433Z,7.10
2018-10-01T20:14:09.849Z,3.97
2018-10-01T20:16:57.645Z,4.32
2018-10-01T20:20:00.321Z,3.50
2018-10-01T20:22:48.162Z,8.80
2018-10-01T20:25:35.881Z,4.18
2018-10-01T20:28:23.890Z,2.27
2018-10-01T20:31:11.144Z,5.57
2018-10-01T20:33:59.408Z,4.70
2018-10-01T20:36:46.988Z,7.87
2018-10-01T20:39:34.768Z,4.37
2018-10-01T20:42:22.622Z,6.30
2018-10-01T20:45:19.379Z,7.90
2018-10-01T20:48:08.400Z,6.80
2018-10-01T20:50:56.675Z,13.77
2018-10-01T20:53:47.763Z,10.63
2018-10-01T20:56:36.277Z,4.13
2018-10-01T20:59:24.466Z,12.03
2018-10-01T21:02:11.865Z,11.33
2018-10-01T21:05:01.439Z,13.10
2018-10-01T21:07:49.290Z,12.03
2018-10-01T21:10:38.023Z,13.93
2018-10-01T21:13:33.274Z,20.63
2018-10-01T21:16:34.201Z,18.43
2018-10-01T21:19:27.361Z,29.23
2018-10-01T21:22:22.328Z,10.03
2018-10-01T21:25:10.224Z,12.10
2018-10-01T21:27:58.868Z,8.07
2018-10-01T21:30:48.842Z,4.13
2018-10-01T21:33:39.205Z,4.53
2018-10-01T21:36:27.314Z,6.50
2018-10-01T21:42:21.977Z,3.90
2018-10-01T21:45:09.659Z,4.63
2018-10-01T21:51:07.599Z,4.27
2018-10-01T21:53:56.719Z,3.93
2018-10-01T21:56:48.953Z,1.43
2018-10-01T21:59:36.751Z,4.63
2018-10-01T22:02:41.032Z,3.47
2018-10-01T22:05:31.968Z,2.40
2018-10-01T22:08:21.565Z,4.33
2018-10-01T22:11:08.834Z,4.13
2018-10-01T22:13:56.613Z,3.70
2018-10-01T22:16:47.868Z,2.90
2018-10-01T22:19:35.340Z,2.53
2018-10-01T22:22:22.814Z,2.73
2018-10-01T22:25:17.620Z,2.17
2018-10-01T22:28:11.832Z,5.13
2018-10-01T22:31:02.161Z,2.93
2018-10-01T22:33:49.609Z,2.67
2018-10-01T22:39:49.004Z,5.13
2018-10-01T22:42:37.653Z,3.20
2018-10-01T22:45:32.124Z,6.33
2018-10-01T22:48:31.133Z,2.90
2018-10-01T22:54:36.477Z,3.07
2018-10-01T22:57:32.713Z,2.10
2018-10-01T23:00:20.465Z,1.80
2018-10-01T23:03:09.586Z,3.47
2018-10-01T23:05:57.365Z,2.43
2018-10-01T23:08:46.579Z,1.70
2018-10-01T23:27:19.885Z,6.43
2018-10-01T23:30:08.053Z,8.17
2018-10-01T23:39:09.309Z,5.07
2018-10-01T23:51:23.642Z,4.93
2018-10-01T23:54:16.334Z,7.27
